Time;durP1;ratioP1;P1;durP2;ratioP2;P2;SDS_P1;SDS_P2;PMS_P1;PMS_P2;Temp;Humidity;BMP_temperature;BMP_pressure;BME280_temperature;BME280_humidity;BME280_pressure;Samples;Min_cycle;Max_cycle;Signal;HPM_P1;HPM_P2
2021/04/01 00:00:38;;;;;;;41.00;22.17;;;13.80;99.90;;;;;;5030676;28;20232;-63
2021/04/01 00:03:04;;;;;;;39.53;21.60;;;13.60;99.90;;;;;;5029866;28;20622;-64
2021/04/01 00:05:30;;;;;;;40.00;22.50;;;13.40;99.90;;;;;;5030938;28;20183;-63
2021/04/01 00:07:57;;;;;;;39.07;22.70;;;13.40;99.90;;;;;;5030754;28;20304;-63
2021/04/01 00:10:27;;;;;;;40.63;23.47;;;13.40;99.90;;;;;;5030642;28;20194;-63
2021/04/01 00:12:53;;;;;;;40.03;22.30;;;13.30;99.90;;;;;;5030743;28;20202;-65
2021/04/01 00:15:19;;;;;;;42.57;23.83;;;13.20;99.90;;;;;;5030943;28;20218;-64
2021/04/01 00:17:45;;;;;;;40.63;24.00;;;13.10;99.90;;;;;;5031134;28;20241;-62
2021/04/01 00:20:13;;;;;;;40.33;21.60;;;13.00;99.90;;;;;;5030646;28;20215;-64
2021/04/01 00:22:39;;;;;;;38.13;22.70;;;12.90;99.90;;;;;;5031124;28;20575;-63
2021/04/01 00:25:07;;;;;;;36.80;22.07;;;12.90;99.90;;;;;;5034610;28;20245;-64
2021/04/01 00:27:33;;;;;;;41.73;22.33;;;12.90;99.90;;;;;;5034652;28;20199;-63
2021/04/01 00:29:58;;;;;;;42.03;23.90;;;12.90;99.90;;;;;;5034258;28;20211;-64
2021/04/01 00:32:24;;;;;;;47.73;24.03;;;13.00;99.90;;;;;;5034634;28;20176;-64
2021/04/01 00:34:49;;;;;;;39.40;22.80;;;13.00;99.90;;;;;;5034377;28;20183;-64
2021/04/01 00:37:15;;;;;;;42.13;22.23;;;13.00;99.90;;;;;;5034517;28;20195;-63
2021/04/01 00:39:41;;;;;;;43.07;23.20;;;13.10;99.90;;;;;;5034191;28;20234;-66
2021/04/01 00:42:06;;;;;;;43.00;23.57;;;13.10;99.90;;;;;;5034731;28;20203;-63
2021/04/01 00:44:33;;;;;;;44.20;23.00;;;13.10;99.90;;;;;;5034317;28;20184;-63
2021/04/01 00:46:59;;;;;;;41.80;23.33;;;13.00;99.90;;;;;;5033914;28;20249;-60
2021/04/01 00:49:25;;;;;;;39.23;22.33;;;12.90;99.90;;;;;;5034161;28;20211;-63
2021/04/01 00:51:50;;;;;;;41.43;23.10;;;12.90;99.90;;;;;;5034075;28;20182;-63
2021/04/01 00:54:16;;;;;;;44.73;24.47;;;12.90;99.90;;;;;;5034085;28;20589;-63
2021/04/01 00:56:42;;;;;;;46.60;24.73;;;12.90;99.90;;;;;;5034367;28;20195;-65
2021/04/01 00:59:08;;;;;;;46.03;25.37;;;12.90;99.90;;;;;;5033912;28;20337;-63
2021/04/01 01:01:44;;;;;;;50.27;26.97;;;12.90;99.90;;;;;;5033851;28;20258;-63
2021/04/01 01:04:10;;;;;;;48.93;26.87;;;12.90;99.90;;;;;;5033756;28;20592;-64
2021/04/01 01:06:36;;;;;;;51.87;29.37;;;12.90;99.90;;;;;;5033960;28;20178;-62
2021/04/01 01:09:04;;;;;;;49.47;28.50;;;12.90;99.90;;;;;;5033591;28;20380;-63
2021/04/01 01:11:29;;;;;;;55.50;29.57;;;12.90;99.90;;;;;;5033691;28;20183;-63
2021/04/01 01:13:55;;;;;;;61.43;30.83;;;12.90;99.90;;;;;;5033669;28;20182;-63
2021/04/01 01:16:21;;;;;;;58.90;29.63;;;12.90;99.90;;;;;;5033600;28;20180;-63
2021/04/01 01:18:46;;;;;;;63.70;33.33;;;13.00;99.90;;;;;;5033668;28;20191;-64
2021/04/01 01:21:12;;;;;;;57.67;32.00;;;13.10;99.90;;;;;;5033237;28;20175;-63
2021/04/01 01:23:40;;;;;;;64.03;33.80;;;13.20;99.90;;;;;;5033893;28;20183;-63
2021/04/01 01:26:06;;;;;;;61.53;32.37;;;13.20;99.90;;;;;;5033658;28;20229;-64
2021/04/01 01:28:32;;;;;;;58.73;32.07;;;13.30;99.90;;;;;;5033423;28;20218;-63
2021/04/01 01:30:57;;;;;;;64.13;33.57;;;13.30;99.90;;;;;;5033289;28;20207;-63
2021/04/01 01:33:24;;;;;;;57.10;31.57;;;13.10;99.90;;;;;;5033272;28;20175;-64
2021/04/01 01:35:54;;;;;;;51.10;30.20;;;13.00;99.90;;;;;;5033579;28;20640;-64
2021/04/01 01:38:20;;;;;;;58.97;29.30;;;12.90;99.90;;;;;;5033232;28;20566;-63
2021/04/01 01:40:46;;;;;;;48.50;26.10;;;12.80;99.90;;;;;;5032614;28;20175;-64
2021/04/01 01:43:14;;;;;;;44.87;25.30;;;12.80;99.90;;;;;;5033471;28;20191;-64
2021/04/01 01:45:41;;;;;;;47.03;24.97;;;12.80;99.90;;;;;;5032393;28;20719;-63
2021/04/01 01:48:08;;;;;;;45.97;24.37;;;12.70;99.90;;;;;;5033565;28;20210;-62
2021/04/01 01:50:35;;;;;;;48.27;25.27;;;12.60;99.90;;;;;;5032802;28;20180;-64
2021/04/01 01:53:03;;;;;;;48.40;25.57;;;12.60;99.90;;;;;;5033234;28;20290;-63
2021/04/01 01:55:29;;;;;;;46.57;23.30;;;12.70;99.90;;;;;;5033037;28;20186;-63
2021/04/01 01:57:55;;;;;;;42.37;24.20;;;12.70;99.90;;;;;;5033001;28;20215;-63
2021/04/01 02:00:34;;;;;;;49.83;25.37;;;12.60;99.90;;;;;;5032484;28;20187;-62
2021/04/01 02:03:03;;;;;;;53.10;23.80;;;12.50;99.90;;;;;;5032960;28;20234;-64
2021/04/01 02:05:30;;;;;;;46.17;23.07;;;12.50;99.90;;;;;;5032797;28;20559;-63
2021/04/01 02:07:56;;;;;;;50.97;23.30;;;12.40;99.90;;;;;;5032989;28;20704;-63
2021/04/01 02:10:30;;;;;;;48.13;23.63;;;12.30;99.90;;;;;;5032347;28;20222;-62
2021/04/01 02:12:57;;;;;;;48.07;24.23;;;12.30;99.90;;;;;;5032478;28;20227;-64
2021/04/01 02:15:30;;;;;;;42.07;22.33;;;12.30;99.90;;;;;;5032357;28;20259;-63
2021/04/01 02:18:04;;;;;;;46.87;24.00;;;12.30;99.90;;;;;;5032787;28;20260;-63
2021/04/01 02:20:31;;;;;;;41.00;22.13;;;12.30;99.90;;;;;;5031836;28;20178;-64
2021/04/01 02:22:56;;;;;;;39.97;21.23;;;12.30;99.90;;;;;;5032497;28;20180;-64
2021/04/01 02:25:22;;;;;;;41.80;21.87;;;12.30;99.90;;;;;;5032350;28;20226;-62
2021/04/01 02:27:47;;;;;;;46.50;22.37;;;12.30;99.90;;;;;;5032487;28;20303;-64
2021/04/01 02:30:14;;;;;;;42.17;21.43;;;12.30;99.90;;;;;;5031884;28;20183;-61
2021/04/01 02:32:40;;;;;;;37.87;21.20;;;12.30;99.90;;;;;;5032326;28;20191;-63
2021/04/01 02:35:06;;;;;;;41.90;22.70;;;12.30;99.90;;;;;;5032269;28;20537;-63
2021/04/01 02:37:32;;;;;;;43.17;22.33;;;12.20;99.90;;;;;;5032076;28;20203;-63
2021/04/01 02:39:57;;;;;;;38.10;21.80;;;12.20;99.90;;;;;;5032131;28;20178;-61
2021/04/01 02:42:23;;;;;;;45.67;22.93;;;12.20;99.90;;;;;;5032161;28;20191;-64
2021/04/01 02:44:48;;;;;;;42.07;21.37;;;12.20;99.90;;;;;;5032332;28;20195;-62
2021/04/01 02:47:14;;;;;;;39.27;21.87;;;12.20;99.90;;;;;;5032709;28;20219;-63
2021/04/01 02:49:40;;;;;;;47.37;22.27;;;12.30;99.90;;;;;;5032896;28;20163;-63
2021/04/01 02:52:06;;;;;;;42.57;22.50;;;12.30;99.90;;;;;;5031683;28;20261;-63
2021/04/01 02:54:31;;;;;;;44.57;21.67;;;12.20;99.90;;;;;;5032026;28;20198;-64
2021/04/01 02:56:57;;;;;;;45.70;21.77;;;12.20;99.90;;;;;;5031621;28;20667;-64
2021/04/01 02:59:22;;;;;;;42.77;22.50;;;12.20;99.90;;;;;;5031747;28;20183;-63
2021/04/01 03:01:48;;;;;;;43.93;23.70;;;12.10;99.90;;;;;;5031402;28;20206;-63
2021/04/01 03:04:14;;;;;;;40.20;21.47;;;12.20;99.90;;;;;;5031679;28;20207;-64
2021/04/01 03:06:39;;;;;;;43.20;22.00;;;12.10;99.90;;;;;;5031747;28;20188;-64
2021/04/01 03:09:05;;;;;;;45.37;23.17;;;12.10;99.90;;;;;;5032088;28;20219;-65
2021/04/01 03:11:31;;;;;;;40.80;21.80;;;12.10;99.90;;;;;;5031489;28;20534;-66
2021/04/01 03:13:57;;;;;;;42.40;22.80;;;12.10;99.90;;;;;;5031907;28;20179;-65
2021/04/01 03:16:24;;;;;;;42.83;22.47;;;12.20;99.90;;;;;;5031621;28;20174;-64
2021/04/01 03:18:49;;;;;;;43.47;22.63;;;12.30;99.90;;;;;;5031262;28;20199;-65
2021/04/01 03:21:15;;;;;;;43.67;21.73;;;12.20;99.90;;;;;;5031042;28;20214;-65
2021/04/01 03:23:40;;;;;;;43.47;22.83;;;12.20;99.90;;;;;;5031223;28;20183;-64
2021/04/01 03:26:07;;;;;;;42.63;22.70;;;12.20;99.90;;;;;;5031522;28;20211;-65
2021/04/01 03:28:32;;;;;;;48.37;25.37;;;12.20;99.90;;;;;;5031378;28;20238;-66
2021/04/01 03:31:01;;;;;;;39.90;22.27;;;12.20;99.90;;;;;;5030907;28;20183;-64
2021/04/01 03:33:31;;;;;;;39.40;21.87;;;12.30;99.90;;;;;;5031511;28;20254;-66
2021/04/01 03:35:58;;;;;;;44.37;23.13;;;12.20;99.90;;;;;;5031362;28;20179;-65
2021/04/01 03:38:24;;;;;;;43.80;21.30;;;12.10;99.90;;;;;;5031074;28;20242;-65
2021/04/01 03:40:52;;;;;;;42.50;23.20;;;12.10;99.90;;;;;;5030853;28;20658;-65
2021/04/01 03:43:19;;;;;;;43.60;22.37;;;12.10;99.90;;;;;;5031332;28;20175;-65
2021/04/01 03:45:44;;;;;;;42.33;21.23;;;11.90;99.90;;;;;;5031352;28;20202;-64
2021/04/01 03:48:10;;;;;;;45.00;24.13;;;11.90;99.90;;;;;;5031176;28;20219;-65
2021/04/01 03:50:36;;;;;;;42.97;22.30;;;11.90;99.90;;;;;;5031180;28;20179;-65
2021/04/01 03:53:01;;;;;;;37.63;22.27;;;12.00;99.90;;;;;;5031055;28;20183;-65
2021/04/01 04:00:49;;;;;;;40.03;21.83;;;12.20;99.90;;;;;;5034864;28;20274;-63
2021/04/01 04:03:38;;;;;;;41.57;23.40;;;12.20;99.90;;;;;;5034686;28;20237;-64
2021/04/01 04:11:33;;;;;;;46.90;23.43;;;12.10;99.90;;;;;;5030052;28;20191;-66
2021/04/01 04:14:08;;;;;;;44.50;23.10;;;12.10;99.90;;;;;;5034529;28;20187;-65
2021/04/01 04:16:34;;;;;;;42.53;21.57;;;12.10;99.90;;;;;;5034802;28;20535;-65
2021/04/01 04:19:00;;;;;;;41.87;22.00;;;12.10;99.90;;;;;;5034816;28;20242;-65
2021/04/01 04:21:27;;;;;;;46.17;23.53;;;12.00;99.90;;;;;;5034686;28;20656;-65
2021/04/01 04:23:52;;;;;;;46.13;23.20;;;12.00;99.90;;;;;;5034804;28;20175;-65
2021/04/01 04:26:18;;;;;;;39.30;23.03;;;12.10;99.90;;;;;;5034808;28;20175;-64
2021/04/01 04:28:44;;;;;;;40.47;22.37;;;12.10;99.90;;;;;;5034474;28;20747;-65
2021/04/01 04:31:10;;;;;;;44.83;23.23;;;12.20;99.90;;;;;;5034232;28;20175;-64
2021/04/01 04:33:37;;;;;;;39.13;23.07;;;12.20;99.90;;;;;;5034574;28;20245;-64
2021/04/01 04:36:03;;;;;;;40.27;22.33;;;12.10;99.90;;;;;;5034284;28;20253;-65
2021/04/01 04:38:29;;;;;;;47.37;23.97;;;12.10;99.90;;;;;;5034292;28;20226;-65
2021/04/01 04:40:57;;;;;;;43.67;22.63;;;12.10;99.90;;;;;;5034255;28;20205;-65
2021/04/01 04:43:24;;;;;;;44.10;23.57;;;12.10;99.90;;;;;;5034217;28;20527;-64
2021/04/01 04:45:50;;;;;;;45.43;23.83;;;12.10;99.90;;;;;;5034490;28;20179;-65
2021/04/01 04:48:15;;;;;;;50.03;23.80;;;12.10;99.90;;;;;;5033998;28;20231;-65
2021/04/01 04:50:41;;;;;;;42.17;22.27;;;12.10;99.90;;;;;;5034112;28;20184;-65
2021/04/01 04:53:07;;;;;;;44.57;23.67;;;12.10;99.90;;;;;;5034065;28;20187;-65
2021/04/01 04:55:32;;;;;;;37.53;22.37;;;12.10;99.90;;;;;;5034305;28;20194;-64
2021/04/01 05:05:39;;;;;;;44.90;23.77;;;12.10;99.90;;;;;;5034249;28;20221;-66
2021/04/01 05:08:05;;;;;;;49.37;23.80;;;12.00;99.90;;;;;;5033947;28;20709;-65
2021/04/01 05:10:31;;;;;;;38.10;23.43;;;12.00;99.90;;;;;;5033053;28;20566;-65
2021/04/01 05:13:07;;;;;;;46.17;23.57;;;11.90;99.90;;;;;;5034005;28;20176;-65
2021/04/01 05:15:39;;;;;;;43.67;24.60;;;11.80;99.90;;;;;;5033789;28;20547;-65
2021/04/01 05:18:18;;;;;;;38.50;21.90;;;11.70;99.90;;;;;;5033578;28;20758;-64
2021/04/01 05:20:46;;;;;;;50.43;24.60;;;11.70;99.90;;;;;;5033842;28;20660;-66
2021/04/01 05:23:24;;;;;;;43.33;22.60;;;11.60;99.90;;;;;;5033703;28;20182;-65
2021/04/01 05:25:50;;;;;;;42.57;23.13;;;11.50;99.90;;;;;;5033685;28;20642;-65
2021/04/01 05:30:44;;;;;;;42.23;24.50;;;11.20;99.90;;;;;;5033373;28;20645;-66
2021/04/01 05:33:11;;;;;;;47.00;23.67;;;11.20;99.90;;;;;;5033664;28;20179;-65
2021/04/01 05:35:37;;;;;;;40.60;23.37;;;11.20;99.90;;;;;;5033408;28;20179;-65
2021/04/01 05:38:03;;;;;;;46.73;24.73;;;11.30;99.90;;;;;;5033522;28;20217;-66
2021/04/01 05:40:29;;;;;;;43.40;23.57;;;11.20;99.90;;;;;;5032624;28;20190;-65
2021/04/01 05:42:56;;;;;;;46.73;24.77;;;11.30;99.90;;;;;;5033484;28;20175;-63
2021/04/01 05:47:53;;;;;;;41.13;23.80;;;11.30;99.90;;;;;;5033342;28;20210;-66
2021/04/01 05:54:05;;;;;;;41.53;22.03;;;11.30;99.90;;;;;;5033335;28;20262;-65
2021/04/01 06:03:56;;;;;;;50.60;24.13;;;11.30;99.90;;;;;;5032905;28;20183;-65
2021/04/01 06:06:30;;;;;;;39.53;23.00;;;11.20;99.90;;;;;;5023929;28;20194;-66
2021/04/01 06:09:02;;;;;;;42.03;23.53;;;11.20;99.90;;;;;;5032618;28;20695;-65
2021/04/01 06:11:28;;;;;;;39.70;22.70;;;11.30;99.90;;;;;;5032331;28;20608;-64
2021/04/01 06:16:39;;;;;;;39.43;21.63;;;11.40;99.90;;;;;;5033127;28;20179;-65
2021/04/01 06:19:07;;;;;;;43.00;22.07;;;11.40;99.90;;;;;;5032778;28;20231;-64
2021/04/01 06:21:45;;;;;;;44.20;22.57;;;11.60;99.90;;;;;;5031188;28;20197;-65
2021/04/01 06:24:30;;;;;;;43.90;22.07;;;11.80;99.90;;;;;;5032726;28;20171;-65
2021/04/01 06:27:27;;;;;;;39.67;22.77;;;12.00;99.90;;;;;;5032316;28;20187;-65
2021/04/01 06:30:22;;;;;;;35.73;20.23;;;12.10;99.90;;;;;;5012300;28;20287;-64
2021/04/01 06:33:07;;;;;;;38.27;22.07;;;12.40;99.90;;;;;;5013110;28;20195;-66
2021/04/01 06:35:42;;;;;;;37.63;21.87;;;12.80;99.90;;;;;;5015113;28;20665;-64
2021/04/01 06:40:43;;;;;;;38.27;21.40;;;13.60;99.90;;;;;;5031876;28;20259;-65
2021/04/01 06:43:17;;;;;;;37.60;21.80;;;14.10;99.90;;;;;;5032003;28;20159;-65
2021/04/01 06:45:57;;;;;;;36.83;20.90;;;14.50;99.90;;;;;;5030758;28;20179;-66
2021/04/01 06:48:28;;;;;;;36.03;20.50;;;14.80;99.90;;;;;;5031925;28;20206;-66
2021/04/01 06:51:06;;;;;;;38.33;21.50;;;15.20;99.90;;;;;;5031316;28;20167;-65
2021/04/01 06:53:53;;;;;;;39.37;21.23;;;15.70;99.90;;;;;;5031889;28;20544;-65
2021/04/01 06:56:34;;;;;;;32.22;20.05;;;16.20;99.90;;;;;;5032454;28;20185;-66
2021/04/01 06:59:15;;;;;;;35.83;20.65;;;16.80;99.90;;;;;;5031688;28;20591;-65
2021/04/01 07:01:53;;;;;;;36.38;20.65;;;17.30;99.90;;;;;;5032022;28;20260;-65
2021/04/01 07:04:22;;;;;;;36.63;20.70;;;17.70;99.90;;;;;;5031558;28;20186;-65
2021/04/01 07:06:53;;;;;;;36.67;21.05;;;18.10;99.90;;;;;;5032018;28;20282;-65
2021/04/01 07:12:15;;;;;;;33.58;20.08;;;18.70;99.90;;;;;;5035776;28;20191;-64
2021/04/01 07:14:43;;;;;;;37.05;21.27;;;19.00;99.90;;;;;;5031771;28;20179;-66
2021/04/01 07:17:12;;;;;;;36.42;22.90;;;19.40;99.90;;;;;;5031496;28;20266;-66
2021/04/01 07:47:30;;;;;;;52.22;30.60;;;21.30;99.90;;;;;;5030661;28;20593;-65
2021/04/01 07:49:59;;;;;;;55.90;31.50;;;21.30;99.90;;;;;;5030621;28;20194;-65
2021/04/01 07:52:26;;;;;;;63.97;30.88;;;21.10;99.90;;;;;;5011254;28;20203;-66
2021/04/01 07:55:07;;;;;;;53.53;31.25;;;20.90;99.90;;;;;;5017352;28;20668;-66
2021/04/01 08:05:29;;;;;;;56.92;31.30;;;21.60;99.90;;;;;;5030860;28;20178;-66
2021/04/01 08:08:00;;;;;;;52.58;31.45;;;22.20;99.90;;;;;;5030580;28;20203;-66
2021/04/01 08:10:29;;;;;;;58.03;32.75;;;22.30;99.90;;;;;;5030651;28;20267;-64
2021/04/01 08:13:06;;;;;;;58.70;33.33;;;22.50;99.90;;;;;;5030862;28;20262;-66
2021/04/01 08:15:42;;;;;;;56.88;33.95;;;22.50;99.90;;;;;;5028932;28;20175;-66
2021/04/01 08:20:46;;;;;;;59.80;33.47;;;22.50;99.90;;;;;;5030803;28;20587;-67
2021/04/01 08:25:46;;;;;;;63.47;35.13;;;22.70;99.90;;;;;;5031157;28;20180;-66
2021/04/01 08:36:01;;;;;;;59.83;33.80;;;22.50;99.90;;;;;;5031006;28;20191;-64
2021/04/01 08:38:28;;;;;;;56.10;33.88;;;22.50;99.90;;;;;;5030450;28;20195;-65
2021/04/01 08:40:58;;;;;;;61.72;34.65;;;22.60;99.90;;;;;;5030644;28;20182;-65
2021/04/01 08:43:53;;;;;;;63.78;34.08;;;22.80;99.90;;;;;;5030297;28;20226;-65
2021/04/01 08:46:40;;;;;;;61.58;32.28;;;22.60;99.90;;;;;;5034459;28;20180;-66
2021/04/01 08:49:35;;;;;;;57.65;32.45;;;22.50;99.90;;;;;;5034053;28;20635;-65
2021/04/01 08:52:31;;;;;;;58.30;31.52;;;22.60;99.90;;;;;;5034086;28;20183;-64
2021/04/01 08:55:06;;;;;;;63.35;33.58;;;22.80;99.90;;;;;;5034102;28;20171;-66
2021/04/01 08:57:43;;;;;;;57.38;32.67;;;22.70;99.90;;;;;;5033933;28;20210;-65
2021/04/01 09:00:14;;;;;;;54.47;30.35;;;22.60;99.90;;;;;;5033904;28;20182;-65
2021/04/01 09:02:50;;;;;;;52.22;29.98;;;22.80;99.90;;;;;;5034264;28;20313;-65
2021/04/01 09:05:18;;;;;;;53.60;30.15;;;22.90;99.90;;;;;;5033938;28;20539;-65
2021/04/01 09:07:59;;;;;;;52.47;30.10;;;23.30;99.90;;;;;;5034275;28;20210;-65
2021/04/01 09:10:32;;;;;;;59.80;32.47;;;23.50;99.90;;;;;;5033579;28;20174;-65
2021/04/01 09:13:14;;;;;;;57.85;31.55;;;23.50;99.90;;;;;;5033764;28;20238;-64
2021/04/01 09:18:22;;;;;;;51.03;29.40;;;23.30;99.90;;;;;;5033623;28;20199;-63
2021/04/01 09:20:53;;;;;;;54.22;30.10;;;23.00;99.90;;;;;;5032299;28;20290;-64
2021/04/01 09:23:21;;;;;;;58.03;30.98;;;23.00;99.90;;;;;;5033343;28;20187;-64
2021/04/01 09:25:49;;;;;;;53.80;29.00;;;23.40;99.90;;;;;;5033673;28;20168;-64
2021/04/01 09:28:15;;;;;;;56.25;31.45;;;23.30;99.90;;;;;;5033144;28;20221;-64
2021/04/01 09:30:43;;;;;;;59.28;29.38;;;23.30;99.90;;;;;;5033333;28;20207;-64
2021/04/01 09:33:32;;;;;;;56.70;31.02;;;23.40;99.90;;;;;;5033326;28;20262;-65
2021/04/01 09:36:22;;;;;;;54.33;29.30;;;23.50;99.90;;;;;;5033689;28;20171;-63
2021/04/01 09:39:03;;;;;;;54.55;29.95;;;23.80;99.90;;;;;;5032907;28;20234;-64
2021/04/01 09:41:34;;;;;;;54.75;29.83;;;23.80;99.90;;;;;;5031551;28;20182;-64
2021/04/01 09:44:08;;;;;;;50.67;28.88;;;24.00;99.90;;;;;;5033175;28;20645;-64
2021/04/01 09:46:37;;;;;;;48.70;26.67;;;24.10;99.90;;;;;;5033465;28;20179;-64
2021/04/01 09:49:05;;;;;;;53.17;27.70;;;24.10;99.90;;;;;;5032952;28;20631;-65
2021/04/01 09:51:32;;;;;;;51.70;27.75;;;24.10;99.90;;;;;;5032730;28;20257;-64
2021/04/01 09:53:59;;;;;;;47.85;25.92;;;24.30;99.90;;;;;;5033005;28;20174;-63
2021/04/01 09:56:31;;;;;;;46.38;27.10;;;24.40;99.90;;;;;;5031834;28;20533;-65
2021/04/01 09:58:58;;;;;;;50.83;27.35;;;24.80;99.90;;;;;;5032974;28;20257;-65
2021/04/01 10:01:47;;;;;;;50.38;24.25;;;25.00;99.90;;;;;;5032516;28;20175;-64
2021/04/01 10:04:19;;;;;;;47.08;23.77;;;25.00;99.90;;;;;;5032749;28;20277;-64
2021/04/01 10:06:50;;;;;;;43.20;23.08;;;24.90;99.90;;;;;;5032962;28;20226;-64
2021/04/01 10:09:24;;;;;;;39.33;18.80;;;24.80;99.90;;;;;;5032356;28;20214;-64
2021/04/01 10:12:04;;;;;;;40.58;19.35;;;25.10;99.90;;;;;;5032591;28;20163;-64
2021/04/01 10:14:30;;;;;;;41.47;20.02;;;24.90;99.90;;;;;;5032422;28;20186;-64
2021/04/01 10:17:05;;;;;;;39.25;19.38;;;24.80;99.90;;;;;;5032742;28;20168;-64
2021/04/01 10:19:42;;;;;;;43.05;18.77;;;24.80;99.90;;;;;;5031997;28;20185;-65
2021/04/01 10:22:25;;;;;;;42.58;19.00;;;24.80;99.90;;;;;;5032749;28;20179;-64
2021/04/01 10:25:20;;;;;;;37.22;17.27;;;24.90;99.90;;;;;;5032436;28;20179;-64
2021/04/01 10:30:17;;;;;;;41.38;18.30;;;25.90;99.90;;;;;;5032091;28;20214;-64
2021/04/01 10:32:53;;;;;;;40.05;17.63;;;25.90;99.90;;;;;;5032384;28;20168;-64
2021/04/01 10:35:24;;;;;;;38.50;18.27;;;25.70;99.90;;;;;;5032223;28;20175;-64
2021/04/01 10:37:55;;;;;;;40.72;18.73;;;25.20;99.90;;;;;;5032160;28;20234;-64
2021/04/01 10:40:21;;;;;;;42.30;18.73;;;25.10;99.90;;;;;;5031711;28;20183;-65
2021/04/01 10:42:49;;;;;;;45.33;19.83;;;25.30;99.90;;;;;;5032317;28;20167;-65
2021/04/01 10:45:21;;;;;;;37.60;17.77;;;25.40;99.90;;;;;;5030606;28;20183;-65
2021/04/01 10:47:55;;;;;;;39.63;18.50;;;25.60;99.90;;;;;;5032076;28;20289;-65
2021/04/01 10:50:21;;;;;;;42.15;19.63;;;25.70;99.90;;;;;;5031422;28;20183;-64
2021/04/01 10:52:47;;;;;;;46.70;20.48;;;25.60;99.90;;;;;;5032165;28;20179;-64
2021/04/01 10:55:13;;;;;;;45.47;20.15;;;25.60;99.90;;;;;;5031607;28;20230;-65
2021/04/01 10:57:39;;;;;;;46.15;21.35;;;25.70;99.90;;;;;;5031909;28;20282;-65
2021/04/01 11:00:15;;;;;;;45.17;21.70;;;25.80;99.90;;;;;;5031627;28;20634;-65
2021/04/01 11:02:48;;;;;;;45.92;23.33;;;25.90;99.90;;;;;;5032074;28;20541;-64
2021/04/01 11:05:16;;;;;;;47.03;22.30;;;25.70;99.90;;;;;;5031578;28;20179;-64
2021/04/01 11:07:47;;;;;;;50.15;20.67;;;26.10;99.90;;;;;;5031191;28;20202;-64
2021/04/01 11:10:24;;;;;;;45.17;19.75;;;26.30;99.90;;;;;;5031351;28;20214;-64
2021/04/01 11:12:56;;;;;;;43.40;20.73;;;26.00;99.90;;;;;;5031338;28;20175;-64
2021/04/01 11:15:24;;;;;;;47.53;21.73;;;25.70;99.90;;;;;;5031261;28;20183;-64
2021/04/01 11:17:54;;;;;;;47.28;20.00;;;26.10;99.90;;;;;;5031468;28;20198;-64
2021/04/01 11:20:23;;;;;;;44.80;21.00;;;26.40;99.90;;;;;;5031314;28;20177;-64
2021/04/01 11:23:10;;;;;;;51.45;22.35;;;26.40;99.90;;;;;;5031429;28;20633;-64
2021/04/01 11:25:38;;;;;;;44.55;21.00;;;26.70;99.90;;;;;;5031569;28;20194;-64
2021/04/01 11:28:05;;;;;;;44.70;22.88;;;26.70;99.90;;;;;;5031264;28;20229;-65
2021/04/01 11:30:48;;;;;;;40.15;19.05;;;26.70;99.90;;;;;;5031157;28;20579;-66
2021/04/01 11:33:18;;;;;;;46.70;21.95;;;26.70;99.90;;;;;;5031191;28;20330;-65
2021/04/01 11:35:47;;;;;;;54.10;21.88;;;26.70;99.90;;;;;;5031608;28;20167;-65
2021/04/01 11:38:22;;;;;;;43.92;20.38;;;26.40;99.90;;;;;;5031111;28;20211;-65
2021/04/01 11:41:01;;;;;;;35.15;18.27;;;26.40;99.90;;;;;;5031146;28;20281;-64
2021/04/01 11:43:30;;;;;;;41.00;19.35;;;26.50;99.90;;;;;;5031138;28;20171;-65
2021/04/01 11:45:56;;;;;;;45.05;21.60;;;26.30;99.90;;;;;;5030764;28;20289;-65
2021/04/01 11:48:22;;;;;;;47.53;21.40;;;26.50;99.90;;;;;;5030219;28;20207;-66
2021/04/01 11:50:49;;;;;;;45.03;22.63;;;26.50;99.90;;;;;;5030991;28;20533;-65
2021/04/01 11:53:15;;;;;;;46.47;23.80;;;26.40;99.90;;;;;;5031261;28;20538;-64
2021/04/01 11:55:52;;;;;;;53.17;25.60;;;26.30;99.90;;;;;;5031229;28;20577;-65
2021/04/01 11:58:19;;;;;;;47.97;24.40;;;26.30;99.90;;;;;;5030360;28;20400;-65
2021/04/01 12:00:45;;;;;;;50.63;24.70;;;26.40;99.90;;;;;;5030944;28;20254;-65
2021/04/01 12:03:15;;;;;;;49.15;25.25;;;26.50;99.90;;;;;;5031153;28;20182;-66
2021/04/01 12:05:46;;;;;;;45.40;25.15;;;26.00;99.90;;;;;;5031049;28;20179;-66
2021/04/01 12:08:12;;;;;;;47.05;23.90;;;25.90;99.90;;;;;;5031131;28;20219;-64
2021/04/01 12:10:38;;;;;;;52.67;24.50;;;25.20;99.90;;;;;;5030836;28;20574;-64
2021/04/01 12:13:05;;;;;;;50.70;26.30;;;25.20;99.90;;;;;;5030941;28;20170;-65
2021/04/01 12:15:39;;;;;;;49.10;23.67;;;25.20;99.90;;;;;;5030705;28;20944;-65
2021/04/01 12:18:06;;;;;;;53.83;27.02;;;25.40;99.90;;;;;;5031083;28;20199;-65
2021/04/01 12:20:33;;;;;;;49.90;25.35;;;25.30;99.90;;;;;;5033701;28;20175;-65
2021/04/01 12:23:16;;;;;;;51.25;27.35;;;25.20;99.90;;;;;;5034955;28;20187;-65
2021/04/01 12:25:43;;;;;;;57.38;30.73;;;25.10;99.90;;;;;;5034788;28;20184;-65
2021/04/01 12:28:18;;;;;;;58.05;29.88;;;24.90;99.90;;;;;;5034762;28;20196;-65
2021/04/01 12:30:47;;;;;;;58.92;28.50;;;25.10;99.90;;;;;;5034494;28;20170;-65
2021/04/01 12:33:14;;;;;;;57.10;29.30;;;25.30;99.90;;;;;;5034658;28;20161;-65
2021/04/01 12:36:11;;;;;;;61.53;30.75;;;25.50;99.90;;;;;;5034531;28;20172;-65
2021/04/01 12:38:39;;;;;;;56.15;28.33;;;25.70;99.90;;;;;;5033098;28;20203;-65
2021/04/01 12:41:09;;;;;;;62.08;29.73;;;25.70;99.90;;;;;;5034325;28;20179;-65
2021/04/01 12:43:41;;;;;;;58.75;28.48;;;26.00;99.90;;;;;;5034253;28;20167;-64
2021/04/01 12:46:07;;;;;;;59.85;26.80;;;25.70;99.90;;;;;;5034329;28;20168;-64
2021/04/01 12:48:40;;;;;;;62.30;29.35;;;25.30;99.90;;;;;;5034145;28;20553;-64
2021/04/01 12:51:08;;;;;;;61.92;28.30;;;25.30;99.90;;;;;;5033891;28;20198;-65
2021/04/01 12:53:35;;;;;;;57.20;28.25;;;25.60;99.90;;;;;;5033950;28;20179;-65
2021/04/01 12:56:23;;;;;;;62.22;28.25;;;25.70;99.90;;;;;;5034044;28;20178;-64
2021/04/01 12:59:24;;;;;;;58.50;28.00;;;26.00;99.90;;;;;;5033128;28;20257;-64
2021/04/01 13:01:45;;;;;;;68.35;27.30;;;26.10;99.90;;;;;;5033532;28;20278;-63
2021/04/01 13:04:12;;;;;;;53.40;26.05;;;26.10;99.90;;;;;;5033939;28;20661;-64
2021/04/01 13:11:55;;;;;;;61.50;30.02;;;25.80;99.90;;;;;;5015763;28;20184;-65
2021/04/01 13:14:22;;;;;;;55.08;28.25;;;25.90;99.20;;;;;;5033931;28;20171;-64
2021/04/01 13:16:48;;;;;;;64.05;33.00;;;25.70;99.50;;;;;;5033487;28;20186;-66
2021/04/01 13:19:14;;;;;;;54.70;30.70;;;25.40;99.90;;;;;;5033593;28;20707;-64
2021/04/01 13:26:56;;;;;;;57.65;32.70;;;24.80;99.90;;;;;;5033550;28;20175;-65
2021/04/01 13:29:26;;;;;;;57.60;31.92;;;24.80;99.90;;;;;;5033568;28;20429;-65
2021/04/01 13:32:01;;;;;;;55.17;31.98;;;24.80;99.90;;;;;;5032984;28;20254;-65
2021/04/01 13:37:07;;;;;;;66.60;38.05;;;24.70;99.90;;;;;;5033482;28;20266;-65
2021/04/01 13:39:42;;;;;;;69.97;38.35;;;24.60;99.90;;;;;;5033256;28;20557;-64
2021/04/01 13:44:50;;;;;;;70.32;41.78;;;24.50;99.90;;;;;;5033302;28;20179;-64
2021/04/01 13:47:18;;;;;;;62.58;38.38;;;24.40;99.90;;;;;;5033125;28;20195;-65
2021/04/01 13:49:45;;;;;;;70.20;39.17;;;24.10;99.90;;;;;;5031634;28;20214;-65
2021/04/01 14:10:58;;;;;;;58.17;32.78;;;24.20;99.90;;;;;;5032368;28;20278;-64
2021/04/01 14:13:27;;;;;;;53.60;32.60;;;23.90;99.90;;;;;;5032684;28;20168;-65
2021/04/01 14:15:53;;;;;;;55.97;33.03;;;23.80;99.90;;;;;;5032410;28;20608;-65
2021/04/01 14:18:19;;;;;;;59.17;34.58;;;23.70;99.90;;;;;;5032445;28;20200;-64
2021/04/01 14:20:45;;;;;;;52.78;29.70;;;23.60;99.90;;;;;;5032128;28;20204;-64
2021/04/01 14:23:17;;;;;;;45.83;27.77;;;23.40;99.90;;;;;;5032562;28;20234;-64
2021/04/01 14:25:45;;;;;;;56.58;29.85;;;23.00;99.90;;;;;;5032285;28;20246;-64
2021/04/01 14:28:11;;;;;;;51.55;27.75;;;23.00;99.90;;;;;;5032094;28;20202;-64
2021/04/01 14:30:37;;;;;;;48.20;27.63;;;23.10;99.90;;;;;;5031704;28;20250;-64
2021/04/01 14:33:04;;;;;;;49.53;27.92;;;23.00;99.90;;;;;;5032434;28;20168;-65
2021/04/01 14:35:31;;;;;;;46.53;25.67;;;23.20;99.90;;;;;;5032536;28;20172;-64
2021/04/01 14:38:00;;;;;;;43.03;25.73;;;23.10;99.90;;;;;;5032216;28;20688;-64
2021/04/01 14:40:35;;;;;;;35.78;21.17;;;23.10;99.90;;;;;;5030550;28;20172;-65
2021/04/01 14:43:10;;;;;;;39.85;23.85;;;23.00;99.90;;;;;;5031312;28;20671;-64
2021/04/01 14:45:37;;;;;;;31.52;20.60;;;22.90;99.90;;;;;;5031291;28;20640;-64
2021/04/01 14:48:03;;;;;;;34.83;20.00;;;23.20;99.90;;;;;;5032167;28;20214;-64
2021/04/01 14:50:29;;;;;;;30.42;18.67;;;23.40;99.90;;;;;;5031618;28;20179;-65
2021/04/01 14:52:55;;;;;;;31.15;18.20;;;23.50;99.90;;;;;;5031907;28;20514;-65